Terminal Aerodrome Forecast
Issued by NWS Louisville, KY

Home | Current Version | Previous Version | Text Only | Print | Product List | Glossary On
Versions: 1 2 3 4 5 6 7 8 9 10 11 12 13 14 15
000
FTUS43 KLMK 251120
TAFBWG
TAF
KBWG 251120Z 2512/2612 28014KT P6SM BKN040
     FM251400 28014G18KT P6SM BKN035
      TEMPO 2514/2518 BKN025
     FM251900 28012G17KT P6SM SCT035
     FM252300 VRB06KT P6SM FEW040=

USA.gov is the U.S. government's official web portal to all federal, state and local government web resources and services.